Airfield :
LOGIN :

Register | Disclaimer

   EN    FR    IT 

 










Legend :    VFR   Marginal VFR   IFR   Intensive IFR   Very Intensive IFR
Visi :
Ceiling :
>= 8 km
>= 3000ft
5 to 8 km
1000 to 3000 ft
1500m to 5 km
500 to 1000 ft
800 to 1500m
200 to 500 ft
< 800m
< 200 ft
Symbols :   Thunderstorms  Fog  Heavy snow  Heavy precipitations  Wind > 20 kt
SIGMETs :     Misc.  Thunderstorms  Icing  Turbulence  Mountain Waves  Volcanic Ashes







- Airport Elevation : 177 ft
- IATA code : HBE


HEBA - Borg El Arab Int.

CURRENT METAR :
  • 250000Z 35016KT 9999 FEW020 13/09 Q1007 NOSIG

EXPIRED METARs :
  • 242300Z 35014KT 9999 FEW020 14/09 Q1007 NOSIG
  • 242200Z 34015KT 9999 FEW020 14/09 Q1008 NOSIG

TAF TAF HEBA
Valid from the 25 at 00:00 until the 26 at 06:00 UTC


242300Z 2500/2606 31010G20KT 9999 SCT020
No reported NOTAMs for that airfield.
3 SIGMETs reported for the Cairo FIR (HECC) :
 
Severe turbulence
HECC SIGMET 15 VALID 250000/250300 HECA
HECC CAIRO FIR SEV TURB FCST BTN 28 19 N AND 30 15 N AND W OF 31 56 E FL 220/350 MOV E 25KMH NC=
Severe turbulence
HECC SIGMET 14 VALID 242100/242400 HECA
HECC CAIRO FIR SEV TURB FCST BTN 28 19 N AND 30 15 N AND W OF 31 56 E FL 220/350 MOV E 25KMH NC=
HECC MH NC=



MET'MAP, your aeronautical weather chart ! - Copyright ORBIFLY December 2007 - Disclaimer

ORBIFLY MET'MAP TEAM :

Programming & Development : Alexandra Zaïnal
Concept & Development : Baudouin d'Aumeries
Co-Development & Prog : Marc-Olivier Méhu
Technical & hardware support : Manuel Goepfert

Contact : metmap@orbifly.com




SOURCES & CREDITS :

   NOAA